Hovedside
METAR-TAF:

METAR-TAF

Lufthavner :

Førde, Norge

Førde lufthamn

breddegrad: 61-27N, lengdegrad: 005-52E, høyde over havet: 150 m

Gjeldene værobservasjon

Denne rapporten ble laget for 1 time og 6 minutter siden, klokken 20:50 UTC
Vind 4 kt fra Nordøst
Temperatur 13°C
Luftfuktighet 88%
Trykk 1002 hPa
Sikt 10 km eller mer
Få skyer i en høyde av 1500 ft
Spredte skyer i en høyde av 4000 ft
Brutte skyer i en høyde av 7000 ft

METAR: ENBL 182050Z 04004KT 9999 FEW015 SCT040 BKN070 13/11 Q1002

Tid: 23:56 (21:56 UTC)


TAF: fraværende

Værobservasjoner og værvarsel for over 4000 flyplasser (METAR- og TAF-rapporter).

Tilgjengelige stasjoner er representert av de røde og gule prikkene på kartet.

Hold musepekeren over prikken for å se navnet på stasjonen.

Klikk så for å se værobservasjoner og -varsler.

For å forandre kartet kan du klikke på den grønne knappen med svart kryss for å zoome inn, på den grønne knappen med strek for å zoome ut, eller på de grønne pilene for å se tilstøtende kart.


METAR-TAF: